Time;durP1;ratioP1;P1;durP2;ratioP2;P2;SDS_P1;SDS_P2;PMS_P1;PMS_P2;Temp;Humidity;BMP_temperature;BMP_pressure;BME280_temperature;BME280_humidity;BME280_pressure;Samples;Min_cycle;Max_cycle;Signal;HPM_P1;HPM_P2
2023/05/14 00:01:03;;;;;;;;;11.00;11.00;;;;;10.70;71.43;100165.63;5116354;28;8828;-59
2023/05/14 00:03:31;;;;;;;;;11.50;10.50;;;;;10.60;71.31;100154.00;5116507;28;8959;-59
2023/05/14 00:05:59;;;;;;;;;11.00;11.00;;;;;10.51;71.50;100154.72;5116596;28;8844;-59
2023/05/14 00:08:26;;;;;;;;;12.00;11.00;;;;;10.43;71.59;100149.13;5116861;28;8828;-60
2023/05/14 00:10:54;;;;;;;;;11.00;9.75;;;;;10.37;71.51;100146.91;5116777;28;8870;-59
2023/05/14 00:13:22;;;;;;;;;15.00;15.00;;;;;10.40;71.59;100159.16;5115722;28;8851;-59
2023/05/14 00:15:50;;;;;;;;;12.00;11.50;;;;;10.49;71.60;100154.00;5116169;28;8848;-58
2023/05/14 00:18:19;;;;;;;;;13.75;12.50;;;;;10.52;71.54;100150.22;5116688;28;8831;-57
2023/05/14 00:20:46;;;;;;;;;10.50;10.50;;;;;10.45;71.70;100154.31;5115832;28;8816;-62
2023/05/14 00:23:14;;;;;;;;;13.00;10.75;;;;;10.40;71.80;100145.84;5115847;28;8828;-58
2023/05/14 00:25:42;;;;;;;;;6.50;6.00;;;;;10.34;71.99;100140.97;5115949;28;8850;-60
2023/05/14 00:28:10;;;;;;;;;13.00;13.00;;;;;10.32;72.17;100145.56;5115550;28;8963;-60
2023/05/14 00:30:38;;;;;;;;;9.00;9.00;;;;;10.29;72.30;100138.66;5114664;28;8844;-59
2023/05/14 00:33:06;;;;;;;;;11.50;11.50;;;;;10.26;72.03;100149.53;5115337;28;8857;-58
2023/05/14 00:35:34;;;;;;;;;13.00;12.00;;;;;10.26;71.77;100154.84;5115550;28;8856;-57
2023/05/14 00:38:02;;;;;;;;;13.50;13.00;;;;;10.25;72.02;100147.00;5115160;28;8828;-59
2023/05/14 00:40:30;;;;;;;;;12.00;9.25;;;;;10.23;72.00;100143.59;5115452;28;8924;-58
2023/05/14 00:42:58;;;;;;;;;12.00;12.00;;;;;10.20;71.76;100134.03;5115824;28;9497;-59
2023/05/14 00:45:25;;;;;;;;;16.50;13.50;;;;;10.17;72.19;100139.56;5115757;28;8874;-58
2023/05/14 00:47:53;;;;;;;;;18.00;17.50;;;;;10.15;72.23;100136.19;5116324;28;8855;-60
2023/05/14 00:50:21;;;;;;;;;16.00;13.00;;;;;10.12;72.29;100136.41;5115755;28;8856;-59
2023/05/14 00:52:49;;;;;;;;;24.00;22.00;;;;;10.12;72.57;100144.41;5115864;28;8824;-58
2023/05/14 00:55:17;;;;;;;;;19.20;18.60;;;;;10.11;72.29;100140.03;5115653;28;8824;-59
2023/05/14 00:57:45;;;;;;;;;24.60;22.00;;;;;10.11;72.15;100139.19;5115800;28;8808;-59
2023/05/14 01:00:13;;;;;;;;;19.00;18.00;;;;;10.11;71.87;100139.19;5117329;28;8816;-59
2023/05/14 01:02:40;;;;;;;;;15.50;15.00;;;;;10.12;71.95;100136.41;5120349;28;9521;-58
2023/05/14 01:05:08;;;;;;;;;26.20;24.80;;;;;10.11;72.29;100139.19;5119996;28;8988;-61
2023/05/14 01:07:36;;;;;;;;;19.60;19.60;;;;;10.10;71.95;100135.66;5119993;28;8946;-58
2023/05/14 01:10:04;;;;;;;;;18.20;18.00;;;;;10.09;72.27;100131.31;5120260;28;8851;-58
2023/05/14 01:12:32;;;;;;;;;20.25;18.75;;;;;10.08;72.51;100128.78;5120160;28;8839;-59
2023/05/14 01:14:59;;;;;;;;;15.00;15.00;;;;;10.07;71.98;100125.25;5119917;28;8823;-59
2023/05/14 01:17:27;;;;;;;;;18.75;18.00;;;;;10.08;72.21;100126.97;5119727;28;8820;-58
2023/05/14 01:19:55;;;;;;;;;15.25;13.00;;;;;10.11;72.29;100131.22;5119824;28;9506;-59
2023/05/14 01:22:22;;;;;;;;;16.00;14.00;;;;;10.11;72.53;100129.38;5119609;28;8824;-60
2023/05/14 01:24:50;;;;;;;;;16.25;15.00;;;;;10.11;72.08;100123.22;5119371;28;8844;-59
2023/05/14 01:27:18;;;;;;;;;17.50;16.50;;;;;10.11;72.18;100115.25;5119252;28;8920;-58
2023/05/14 01:29:46;;;;;;;;;16.50;16.00;;;;;10.08;72.13;100126.13;5119084;28;8840;-58
2023/05/14 01:32:13;;;;;;;;;18.75;16.50;;;;;10.06;72.33;100120.91;5119363;28;8831;-59
2023/05/14 01:34:41;;;;;;;;;12.00;10.50;;;;;10.06;72.46;100126.22;5119440;28;8867;-58
2023/05/14 01:37:08;;;;;;;;;10.75;9.75;;;;;10.03;72.52;100117.63;5119160;28;8816;-59
2023/05/14 01:39:36;;;;;;;;;17.50;15.75;;;;;9.99;72.60;100118.78;5119478;28;8824;-58
2023/05/14 01:42:04;;;;;;;;;15.50;15.50;;;;;9.93;72.34;100121.91;5119482;28;8812;-60
2023/05/14 01:44:32;;;;;;;;;17.00;14.00;;;;;9.88;72.58;100124.88;5118657;28;8925;-59
2023/05/14 01:47:00;;;;;;;;;11.00;9.25;;;;;9.82;72.70;100119.19;5118911;28;8852;-57
2023/05/14 01:49:27;;;;;;;;;12.75;10.00;;;;;9.76;72.84;100114.31;5118883;28;8851;-59
2023/05/14 01:51:55;;;;;;;;;17.25;14.25;;;;;9.71;72.86;100114.66;5119143;28;8824;-60
2023/05/14 01:54:24;;;;;;;;;11.50;11.00;;;;;9.65;73.41;100107.09;5118956;28;8836;-59
2023/05/14 01:56:52;;;;;;;;;15.50;14.75;;;;;9.60;72.83;100111.94;5117688;28;8804;-58
2023/05/14 01:59:20;;;;;;;;;17.60;15.60;;;;;9.56;73.21;100099.81;5119177;28;8836;-58
2023/05/14 02:01:47;;;;;;;;;17.00;16.60;;;;;9.53;73.12;100105.38;5119219;28;8847;-59
2023/05/14 02:04:15;;;;;;;;;13.00;12.75;;;;;9.52;73.27;100103.69;5119139;28;8933;-59
2023/05/14 02:06:43;;;;;;;;;20.50;18.50;;;;;9.51;73.30;100107.28;5118892;28;8835;-60
2023/05/14 02:09:11;;;;;;;;;15.00;14.60;;;;;9.51;73.25;100106.44;5119061;28;8858;-58
2023/05/14 02:11:39;;;;;;;;;16.40;16.40;;;;;9.49;73.20;100103.88;5117876;28;8855;-60
2023/05/14 02:14:06;;;;;;;;;15.75;12.50;;;;;9.46;73.41;100104.13;5118875;28;8824;-60
2023/05/14 02:16:35;;;;;;;;;6.40;5.20;;;;;9.45;73.28;100104.22;5118839;28;8812;-59
2023/05/14 02:19:02;;;;;;;;;14.80;14.80;;;;;9.41;73.24;100106.25;5118726;28;8874;-60
2023/05/14 02:21:30;;;;;;;;;15.20;14.80;;;;;9.37;73.57;100104.78;5118324;28;8824;-60
2023/05/14 02:23:58;;;;;;;;;15.40;15.40;;;;;9.34;73.38;100101.50;5118497;28;8855;-57
2023/05/14 02:26:26;;;;;;;;;18.80;15.00;;;;;9.30;73.42;100103.53;5117758;28;8832;-58
2023/05/14 02:28:53;;;;;;;;;21.60;21.20;;;;;9.26;73.33;100096.72;5118053;28;8921;-60
2023/05/14 02:31:21;;;;;;;;;19.40;18.00;;;;;9.25;73.27;100103.00;5118272;28;8820;-58
2023/05/14 02:33:49;;;;;;;;;16.40;12.60;;;;;9.26;73.47;100098.53;5118230;28;8848;-59
2023/05/14 02:36:17;;;;;;;;;16.20;16.20;;;;;9.24;73.49;100098.66;5118190;28;8820;-59
2023/05/14 02:38:45;;;;;;;;;22.40;19.80;;;;;9.24;73.30;100092.47;5118143;28;8828;-60
2023/05/14 02:41:13;;;;;;;;;19.20;18.80;;;;;9.22;73.64;100095.25;5118279;28;8878;-61
2023/05/14 02:43:41;;;;;;;;;18.40;17.20;;;;;9.22;73.60;100092.59;5118274;28;8921;-60
2023/05/14 02:46:09;;;;;;;;;16.60;13.60;;;;;9.19;73.37;100090.13;5118593;28;8816;-60
2023/05/14 02:48:36;;;;;;;;;20.20;19.00;;;;;9.16;73.37;100090.38;5118234;28;8863;-60
2023/05/14 02:51:04;;;;;;;;;17.00;17.00;;;;;9.13;73.64;100090.56;5118102;28;9489;-60
2023/05/14 02:53:32;;;;;;;;;16.00;16.00;;;;;9.09;73.86;100083.81;5118238;28;8848;-59
2023/05/14 02:55:59;;;;;;;;;18.40;15.00;;;;;9.06;74.00;100089.34;5117568;28;8832;-61
2023/05/14 02:58:27;;;;;;;;;15.20;12.60;;;;;9.03;73.94;100086.88;5118147;28;8820;-61
2023/05/14 03:00:55;;;;;;;;;16.60;15.40;;;;;9.00;73.85;100091.56;5118047;28;8858;-61
2023/05/14 03:03:23;;;;;;;;;10.40;10.40;;;;;8.97;73.86;100092.63;5118034;28;8812;-61
2023/05/14 03:05:51;;;;;;;;;11.80;9.00;;;;;8.95;73.68;100094.53;5118210;28;8840;-61
2023/05/14 03:08:19;;;;;;;;;15.00;12.00;;;;;8.94;74.31;100089.34;5117643;28;8844;-61
2023/05/14 03:10:47;;;;;;;;;13.40;12.20;;;;;8.92;73.78;100097.44;5117910;28;8831;-59
2023/05/14 03:13:16;;;;;;;;;12.60;12.00;;;;;8.90;74.24;100090.53;5117496;28;8970;-61
2023/05/14 03:15:44;;;;;;;;;17.60;15.80;;;;;8.90;74.21;100093.19;5117573;28;8816;-62
2023/05/14 03:18:12;;;;;;;;;12.40;12.00;;;;;8.90;74.13;100094.00;5117685;28;8808;-61
2023/05/14 03:20:39;;;;;;;;;10.40;9.80;;;;;8.92;73.50;100100.09;5117665;28;8832;-60
2023/05/14 03:23:08;;;;;;;;;12.80;12.00;;;;;8.94;73.78;100084.88;5117408;28;8851;-60
2023/05/14 03:25:35;;;;;;;;;11.25;9.50;;;;;8.92;73.72;100085.94;5116434;28;8812;-61
2023/05/14 03:28:03;;;;;;;;;14.80;11.60;;;;;8.90;74.19;100088.69;5116950;28;8839;-59
2023/05/14 03:30:31;;;;;;;;;15.40;13.80;;;;;8.87;73.91;100083.63;5116780;28;8839;-61
2023/05/14 03:32:58;;;;;;;;;15.00;15.00;;;;;8.84;74.04;100083.84;5116737;28;8970;-58
2023/05/14 03:35:26;;;;;;;;;10.00;8.40;;;;;8.82;73.88;100082.25;5116991;28;8870;-60
2023/05/14 03:37:57;;;;;;;;;12.20;11.20;;;;;8.79;73.84;100088.63;5116542;28;8820;-58
2023/05/14 03:40:24;;;;;;;;;12.00;9.20;;;;;8.76;74.19;100082.69;5117062;28;8835;-60
2023/05/14 03:42:52;;;;;;;;;3.50;3.25;;;;;8.71;74.31;100074.16;5117095;28;8824;-60
2023/05/14 03:45:22;;;;;;;;;10.40;9.60;;;;;8.66;74.42;100082.47;5117483;28;8835;-59
2023/05/14 03:47:50;;;;;;;;;6.00;6.00;;;;;8.60;74.47;100080.22;5117186;28;8851;-58
2023/05/14 03:50:17;;;;;;;;;14.00;12.50;;;;;8.54;74.42;100085.97;5116361;28;8875;-58
2023/05/14 03:52:45;;;;;;;;;10.80;10.00;;;;;8.50;74.39;100083.66;5116341;28;8824;-59
2023/05/14 03:55:13;;;;;;;;;13.60;12.40;;;;;8.45;74.27;100075.97;5116175;28;8893;-58
2023/05/14 03:57:40;;;;;;;;;12.40;10.80;;;;;8.43;74.06;100077.91;5116667;28;8816;-58
2023/05/14 04:00:08;;;;;;;;;16.00;15.20;;;;;8.43;74.67;100083.19;5116946;28;8851;-58
2023/05/14 04:02:36;;;;;;;;;12.40;12.40;;;;;8.45;74.49;100075.97;5116306;28;8830;-59
2023/05/14 04:05:03;;;;;;;;;11.20;10.00;;;;;8.48;74.99;100083.75;5116431;28;8840;-59
2023/05/14 04:07:31;;;;;;;;;12.00;9.80;;;;;8.49;74.44;100082.78;5116656;28;8820;-59
2023/05/14 04:09:59;;;;;;;;;10.80;10.40;;;;;8.51;74.22;100075.56;5116747;28;8816;-58
2023/05/14 04:12:30;;;;;;;;;6.00;6.00;;;;;8.55;74.38;100076.19;5117111;28;8824;-59
2023/05/14 04:14:58;;;;;;;;;10.60;9.80;;;;;8.57;74.42;100072.50;5116602;28;8819;-58
2023/05/14 04:17:26;;;;;;;;;9.60;9.20;;;;;8.61;73.99;100076.66;5116503;28;9465;-59
2023/05/14 04:19:53;;;;;;;;;13.00;12.00;;;;;8.65;74.07;100075.47;5116215;28;8835;-58
2023/05/14 04:22:21;;;;;;;;;10.00;9.80;;;;;8.70;73.86;100069.81;5116235;28;8820;-58
2023/05/14 04:24:50;;;;;;;;;10.00;10.00;;;;;8.74;73.70;100072.16;5115635;28;8820;-58
2023/05/14 04:27:18;;;;;;;;;9.80;9.40;;;;;8.81;73.55;100076.06;5115870;28;8808;-58
2023/05/14 04:29:46;;;;;;;;;10.00;9.00;;;;;8.89;73.27;100073.72;5116392;28;8913;-58
2023/05/14 04:32:13;;;;;;;;;8.80;8.20;;;;;8.96;73.30;100068.84;5116284;28;8823;-58
2023/05/14 04:34:41;;;;;;;;;9.40;9.40;;;;;8.99;73.18;100065.97;5115941;28;8852;-59
2023/05/14 04:37:09;;;;;;;;;10.20;8.80;;;;;9.01;73.53;100064.03;5116592;28;8835;-58
2023/05/14 04:39:37;;;;;;;;;7.00;7.00;;;;;9.03;72.88;100062.97;5116356;28;8820;-59
2023/05/14 04:42:05;;;;;;;;;11.20;10.00;;;;;9.09;73.21;100064.34;5116535;28;9505;-59
2023/05/14 04:44:33;;;;;;;;;10.00;9.00;;;;;9.14;72.99;100059.56;5116793;28;8828;-59
2023/05/14 04:47:00;;;;;;;;;9.00;7.40;;;;;9.18;73.01;100072.50;5116243;28;8832;-60
2023/05/14 04:49:29;;;;;;;;;9.60;7.40;;;;;9.25;72.74;100071.09;5116830;28;8820;-60
2023/05/14 04:51:57;;;;;;;;;13.00;12.00;;;;;9.32;72.74;100072.38;5116567;28;8820;-59
2023/05/14 04:54:24;;;;;;;;;12.50;12.50;;;;;9.37;72.53;100074.69;5116188;28;9521;-58
2023/05/14 04:56:54;;;;;;;;;12.50;10.00;;;;;9.43;72.61;100071.59;5115712;28;8800;-60
2023/05/14 04:59:22;;;;;;;;;10.75;10.50;;;;;9.49;72.07;100071.16;5116046;28;8828;-60
2023/05/14 05:01:50;;;;;;;;;9.50;9.00;;;;;9.57;72.40;100071.44;5115945;28;8843;-60
2023/05/14 05:04:18;;;;;;;;;16.00;16.00;;;;;9.63;72.22;100066.50;5115668;28;8859;-60
2023/05/14 05:06:45;;;;;;;;;15.25;13.50;;;;;9.71;72.04;100066.78;5116034;28;8820;-60
2023/05/14 05:09:13;;;;;;;;;9.75;9.75;;;;;9.80;71.62;100071.41;5115816;28;8827;-59
2023/05/14 05:11:41;;;;;;;;;14.50;14.00;;;;;9.92;71.49;100072.31;5115687;28;8830;-58
2023/05/14 05:14:09;;;;;;;;;12.00;11.00;;;;;10.07;71.15;100066.72;5115913;28;8852;-60
2023/05/14 05:16:36;;;;;;;;;12.25;11.50;;;;;10.24;70.81;100060.13;5115907;28;8855;-59
2023/05/14 05:19:04;;;;;;;;;11.00;10.50;;;;;10.41;70.77;100063.19;5115928;28;8834;-59
2023/05/14 05:21:31;;;;;;;;;11.75;10.75;;;;;10.62;70.93;100052.69;5116504;28;9544;-61
2023/05/14 05:23:59;;;;;;;;;9.50;9.00;;;;;10.81;70.57;100043.16;5116098;28;9478;-59
2023/05/14 05:26:27;;;;;;;;;12.25;12.25;;;;;11.00;69.75;100040.69;5115481;28;8808;-59
2023/05/14 05:28:55;;;;;;;;;7.25;7.25;;;;;11.17;69.25;100053.56;5115917;28;8840;-61
2023/05/14 05:31:22;;;;;;;;;8.00;7.00;;;;;11.30;69.16;100046.25;5116055;28;8866;-59
2023/05/14 05:33:50;;;;;;;;;15.00;14.50;;;;;11.43;68.94;100046.09;5115536;28;9600;-60
2023/05/14 05:36:18;;;;;;;;;15.25;15.25;;;;;11.59;68.71;100054.59;5115402;28;8836;-61
2023/05/14 05:38:46;;;;;;;;;16.00;15.25;;;;;11.70;69.19;100052.72;5115683;28;8887;-60
2023/05/14 05:41:13;;;;;;;;;18.25;16.25;;;;;11.88;68.84;100050.34;5114977;28;8839;-59
2023/05/14 05:43:41;;;;;;;;;17.00;16.00;;;;;12.06;68.21;100052.31;5115505;28;8809;-60
2023/05/14 05:46:08;;;;;;;;;21.25;18.00;;;;;12.25;68.10;100047.97;5116562;28;8878;-59
2023/05/14 05:48:36;;;;;;;;;15.25;15.00;;;;;12.43;68.01;100054.44;5118374;28;8978;-58
2023/05/14 05:51:04;;;;;;;;;16.00;16.00;;;;;12.61;67.52;100046.66;5118530;28;8839;-58
2023/05/14 05:53:32;;;;;;;;;16.00;15.50;;;;;12.75;67.17;100043.66;5118720;28;8920;-59
2023/05/14 05:56:00;;;;;;;;;15.00;14.00;;;;;12.86;67.06;100046.22;5117884;28;8925;-58
2023/05/14 05:58:28;;;;;;;;;18.75;15.25;;;;;12.92;67.61;100046.53;5118708;28;8827;-58
2023/05/14 06:00:56;;;;;;;;;12.75;11.50;;;;;12.94;66.83;100051.75;5117791;28;8835;-58
2023/05/14 06:03:24;;;;;;;;;17.25;14.75;;;;;12.97;67.49;100048.81;5117668;28;8816;-59
2023/05/14 06:05:52;;;;;;;;;13.25;13.25;;;;;12.99;67.56;100052.22;5117556;28;8839;-58
2023/05/14 06:08:20;;;;;;;;;13.50;13.50;;;;;12.96;67.69;100056.00;5118877;28;8926;-59
2023/05/14 06:10:47;;;;;;;;;13.50;13.25;;;;;12.88;67.73;100049.59;5118650;28;9664;-59
2023/05/14 06:13:15;;;;;;;;;8.50;7.00;;;;;12.82;68.18;100059.00;5118091;28;8855;-58
2023/05/14 06:15:43;;;;;;;;;12.50;11.50;;;;;12.83;67.90;100054.53;5118848;28;8846;-59
2023/05/14 06:18:11;;;;;;;;;10.00;9.00;;;;;12.88;68.04;100055.81;5118171;28;9044;-58
2023/05/14 06:20:40;;;;;;;;;12.00;12.00;;;;;13.00;68.30;100059.25;5117464;28;8836;-59
2023/05/14 06:23:07;;;;;;;;;10.50;10.50;;;;;13.13;67.83;100059.88;5117108;28;9554;-59
2023/05/14 06:25:35;;;;;;;;;11.00;11.00;;;;;13.30;67.51;100061.91;5117211;28;8812;-59
2023/05/14 06:28:03;;;;;;;;;10.50;10.00;;;;;13.46;67.07;100070.25;5117700;28;8901;-59
2023/05/14 06:30:31;;;;;;;;;15.50;15.50;;;;;13.61;66.75;100066.22;5117140;28;8912;-61
2023/05/14 06:32:58;;;;;;;;;12.50;12.50;;;;;13.75;66.75;100080.03;5117370;28;8839;-61
2023/05/14 06:35:26;;;;;;;;;15.00;13.00;;;;;13.87;66.43;100060.19;5117972;28;8990;-61
2023/05/14 06:37:54;;;;;;;;;12.50;12.00;;;;;14.01;66.34;100064.25;5117383;28;8836;-59
2023/05/14 06:40:22;;;;;;;;;15.25;13.50;;;;;14.13;66.64;100060.47;5117739;28;8820;-61
2023/05/14 06:42:50;;;;;;;;;12.75;11.50;;;;;14.24;66.37;100065.69;5117427;28;8840;-61
2023/05/14 06:45:18;;;;;;;;;12.75;12.75;;;;;14.35;65.76;100061.03;5117221;28;9493;-60
2023/05/14 06:47:46;;;;;;;;;14.00;14.00;;;;;14.44;65.60;100054.84;5117551;28;8852;-61
2023/05/14 06:50:14;;;;;;;;;18.00;15.75;;;;;14.56;65.42;100056.34;5117102;28;8882;-60
2023/05/14 06:52:42;;;;;;;;;14.00;14.00;;;;;14.68;65.54;100051.66;5116814;28;8824;-60
2023/05/14 06:55:10;;;;;;;;;16.50;15.25;;;;;14.77;65.61;100045.44;5117524;28;8848;-60
2023/05/14 06:57:38;;;;;;;;;17.00;15.50;;;;;14.89;65.38;100045.13;5117018;28;8832;-61
2023/05/14 07:00:07;;;;;;;;;18.25;18.00;;;;;15.03;65.30;100047.31;5116878;28;8881;-61
2023/05/14 07:02:35;;;;;;;;;16.75;15.75;;;;;15.13;64.65;100042.75;5116384;28;8831;-62
2023/05/14 07:05:03;;;;;;;;;16.50;14.50;;;;;15.27;64.53;100041.41;5116711;28;8861;-59
2023/05/14 07:07:32;;;;;;;;;18.50;16.00;;;;;15.40;64.50;100036.59;5115709;28;8854;-60
2023/05/14 07:10:00;;;;;;;;;21.50;20.50;;;;;15.55;64.22;100043.97;5116264;28;8866;-61
2023/05/14 07:12:28;;;;;;;;;16.00;13.00;;;;;15.69;64.11;100034.56;5116595;28;8850;-61
2023/05/14 07:14:56;;;;;;;;;21.00;19.25;;;;;15.82;63.59;100029.63;5115481;28;8905;-60
2023/05/14 07:17:24;;;;;;;;;16.00;14.00;;;;;15.95;63.65;100030.97;5116817;28;8824;-60
2023/05/14 07:19:51;;;;;;;;;24.50;20.50;;;;;16.07;63.51;100031.56;5116266;28;9028;-58
2023/05/14 07:22:19;;;;;;;;;16.00;15.00;;;;;16.21;63.73;100026.47;5115478;28;8808;-61
2023/05/14 07:24:48;;;;;;;;;16.75;15.50;;;;;16.34;63.07;100017.00;5116537;28;8831;-59
2023/05/14 07:27:16;;;;;;;;;14.50;12.50;;;;;16.47;63.17;100022.84;5116864;28;8844;-59
2023/05/14 07:29:44;;;;;;;;;14.50;14.50;;;;;16.60;62.65;100017.91;5116422;28;8855;-60
2023/05/14 07:32:12;;;;;;;;;16.00;16.00;;;;;16.75;62.88;100023.53;5116138;28;8816;-60
2023/05/14 07:34:42;;;;;;;;;15.50;14.75;;;;;16.90;62.91;100013.88;5116809;28;8840;-59
2023/05/14 07:37:09;;;;;;;;;18.00;15.00;;;;;17.04;62.19;100011.44;5116666;28;8862;-58
2023/05/14 07:39:37;;;;;;;;;14.00;13.00;;;;;17.17;62.02;100014.50;5116789;28;8982;-59
2023/05/14 07:42:05;;;;;;;;;12.25;9.50;;;;;17.30;62.11;100014.06;5114933;28;8978;-60
2023/05/14 07:44:33;;;;;;;;;15.25;13.50;;;;;17.41;61.73;100006.56;5115804;28;8895;-58
2023/05/14 07:47:02;;;;;;;;;15.50;13.00;;;;;17.54;61.75;100016.88;5116667;28;8852;-59
2023/05/14 07:49:30;;;;;;;;;11.00;10.50;;;;;17.67;61.61;100011.84;5115946;28;8887;-59
2023/05/14 07:51:58;;;;;;;;;12.20;12.20;;;;;17.80;61.43;100001.41;5115036;28;8804;-60
2023/05/14 07:54:26;;;;;;;;;12.00;12.00;;;;;17.94;61.46;100000.78;5115475;28;8823;-59
2023/05/14 07:56:54;;;;;;;;;14.60;12.60;;;;;18.07;61.28;100001.13;5115751;28;8828;-61
2023/05/14 07:59:22;;;;;;;;;13.00;12.60;;;;;18.19;61.38;99988.97;5115634;28;8848;-61
2023/05/14 08:01:49;;;;;;;;;11.60;11.60;;;;;18.33;60.94;99996.41;5115368;28;8840;-60
2023/05/14 08:04:17;;;;;;;;;11.60;10.40;;;;;18.45;60.66;99993.19;5115649;28;8970;-61
2023/05/14 08:06:45;;;;;;;;;8.60;7.40;;;;;18.55;60.31;99999.28;5116286;28;8987;-59
2023/05/14 08:09:13;;;;;;;;;6.00;6.00;;;;;18.65;60.19;99989.13;5114511;28;8831;-61
2023/05/14 08:11:41;;;;;;;;;11.20;10.00;;;;;18.75;60.68;99997.03;5115265;28;8844;-60
2023/05/14 08:14:09;;;;;;;;;7.00;6.80;;;;;18.86;60.04;99988.56;5115355;28;8912;-61
2023/05/14 08:16:37;;;;;;;;;8.60;8.60;;;;;18.97;60.12;99986.31;5115725;28;8861;-60
2023/05/14 08:19:05;;;;;;;;;4.00;4.00;;;;;19.06;60.05;99993.38;5115500;28;8831;-60
2023/05/14 08:21:33;;;;;;;;;8.60;7.00;;;;;19.11;59.54;99991.00;5114818;28;9570;-59
2023/05/14 08:24:01;;;;;;;;;9.80;9.20;;;;;19.18;59.60;99992.00;5115609;28;8867;-59
2023/05/14 08:26:28;;;;;;;;;6.60;5.80;;;;;19.24;59.26;99988.63;5115504;28;8970;-61
2023/05/14 08:28:58;;;;;;;;;7.40;7.00;;;;;19.32;59.35;99993.13;5114657;28;8831;-60
2023/05/14 08:31:26;;;;;;;;;5.20;5.00;;;;;19.41;59.08;99992.09;5117083;28;8905;-60
2023/05/14 08:33:55;;;;;;;;;7.80;5.40;;;;;19.53;58.63;99994.22;5117393;28;8882;-61
2023/05/14 08:36:23;;;;;;;;;11.80;8.20;;;;;19.64;58.80;99987.56;5115285;28;8946;-60
2023/05/14 08:38:51;;;;;;;;;7.00;7.00;;;;;19.73;58.34;99989.19;5115561;28;8952;-60
2023/05/14 08:41:20;;;;;;;;;6.80;5.20;;;;;19.83;58.16;99992.50;5115749;28;8836;-60
2023/05/14 08:43:48;;;;;;;;;6.20;5.00;;;;;19.91;58.17;99985.19;5114604;28;8878;-59
2023/05/14 08:46:16;;;;;;;;;7.00;5.40;;;;;19.95;57.87;99983.78;5114837;28;8820;-60
2023/05/14 08:48:43;;;;;;;;;5.00;5.00;;;;;20.03;58.03;99988.31;5115061;28;8947;-60
2023/05/14 08:51:11;;;;;;;;;5.00;5.00;;;;;20.09;57.74;99971.38;5114079;28;8842;-60
2023/05/14 08:53:40;;;;;;;;;6.20;5.40;;;;;20.12;57.78;99974.56;5115122;28;8840;-60
2023/05/14 08:56:08;;;;;;;;;7.00;7.00;;;;;20.18;57.63;99976.53;5114849;28;8839;-60
2023/05/14 08:58:36;;;;;;;;;10.00;8.80;;;;;20.27;57.46;99977.31;5114407;28;8824;-59
2023/05/14 09:01:04;;;;;;;;;4.40;4.40;;;;;20.34;56.85;99968.25;5114056;28;8800;-59
2023/05/14 09:03:32;;;;;;;;;6.60;6.60;;;;;20.40;57.10;99959.41;5114279;28;8982;-60
2023/05/14 09:06:00;;;;;;;;;7.20;7.20;;;;;20.47;57.22;99959.53;5114804;28;8846;-59
2023/05/14 09:08:28;;;;;;;;;8.00;7.20;;;;;20.56;56.59;99964.66;5115239;28;8839;-59
2023/05/14 09:10:56;;;;;;;;;7.20;7.20;;;;;20.66;56.62;99965.25;5114689;28;9025;-61
2023/05/14 09:13:24;;;;;;;;;10.00;9.40;;;;;20.71;56.61;99960.09;5113494;28;8917;-60
2023/05/14 09:15:54;;;;;;;;;8.00;8.00;;;;;20.79;56.49;99960.88;5113319;28;8844;-59
2023/05/14 09:18:23;;;;;;;;;7.20;7.00;;;;;20.89;56.07;99964.16;5113904;28;8836;-60
2023/05/14 09:20:51;;;;;;;;;7.00;7.00;;;;;20.99;56.11;99961.16;5114689;28;8828;-60
2023/05/14 09:23:19;;;;;;;;;6.20;5.00;;;;;21.07;55.79;99964.63;5117852;28;8827;-59
2023/05/14 09:25:47;;;;;;;;;5.00;4.80;;;;;21.22;55.83;99962.75;5117161;28;8858;-60
2023/05/14 09:28:14;;;;;;;;;8.80;8.00;;;;;21.33;55.53;99954.13;5117602;28;8839;-60
2023/05/14 09:30:43;;;;;;;;;7.80;7.80;;;;;21.42;55.04;99955.66;5116785;28;8847;-60
2023/05/14 09:33:10;;;;;;;;;5.40;5.40;;;;;21.53;54.81;99966.03;5116677;28;8851;-60
2023/05/14 09:35:40;;;;;;;;;8.20;7.80;;;;;21.65;54.33;99963.66;5116951;28;8851;-58
2023/05/14 09:38:08;;;;;;;;;5.60;5.20;;;;;21.77;54.60;99956.72;5117260;28;8870;-60
2023/05/14 09:40:35;;;;;;;;;5.20;4.00;;;;;21.94;54.11;99955.44;5116700;28;8828;-59
2023/05/14 09:43:03;;;;;;;;;6.20;6.20;;;;;22.14;53.90;99949.16;5117289;28;8828;-62
2023/05/14 09:45:31;;;;;;;;;7.40;7.40;;;;;22.44;52.84;99944.41;5116372;28;8921;-62
2023/05/14 09:47:59;;;;;;;;;6.40;5.80;;;;;22.80;52.08;99943.22;5116059;28;8843;-59
2023/05/14 09:50:28;;;;;;;;;4.40;4.40;;;;;23.21;51.77;99941.38;5116670;28;8836;-59
2023/05/14 09:52:56;;;;;;;;;5.00;5.00;;;;;23.64;51.18;99940.06;5117378;28;8851;-60
2023/05/14 09:55:25;;;;;;;;;5.00;5.00;;;;;24.11;49.49;99925.53;5116960;28;8840;-59
2023/05/14 09:57:53;;;;;;;;;8.00;7.00;;;;;24.49;49.79;99935.53;5116893;28;8975;-60
2023/05/14 10:00:21;;;;;;;;;7.80;7.60;;;;;24.84;48.90;99926.09;5116849;28;8970;-60
2023/05/14 10:02:51;;;;;;;;;7.20;6.00;;;;;25.11;49.02;99929.56;5116904;28;8847;-60
2023/05/14 10:05:20;;;;;;;;;6.00;6.00;;;;;25.35;48.54;99929.72;5116227;28;8999;-60
2023/05/14 10:07:48;;;;;;;;;6.00;6.00;;;;;25.67;48.29;99920.50;5116448;28;8966;-60
2023/05/14 10:10:17;;;;;;;;;5.00;5.00;;;;;25.96;47.67;99914.47;5117140;28;8866;-59
2023/05/14 10:12:45;;;;;;;;;2.20;2.20;;;;;26.35;47.35;99914.16;5117201;28;8820;-60
2023/05/14 10:15:13;;;;;;;;;5.80;5.20;;;;;26.61;47.48;99917.50;5117404;28;8848;-61
2023/05/14 10:17:41;;;;;;;;;1.40;1.40;;;;;26.75;46.60;99913.56;5117401;28;8840;-61
2023/05/14 10:20:10;;;;;;;;;6.60;5.80;;;;;26.95;46.46;99916.91;5117678;28;8961;-61
2023/05/14 10:22:38;;;;;;;;;7.00;6.60;;;;;27.27;46.38;99915.72;5117116;28;8828;-60
2023/05/14 10:25:07;;;;;;;;;5.60;5.60;;;;;27.62;45.54;99903.00;5116370;28;8831;-62
2023/05/14 10:27:35;;;;;;;;;4.80;4.80;;;;;27.93;45.11;99905.53;5116153;28;8847;-62
2023/05/14 10:30:03;;;;;;;;;7.60;7.00;;;;;28.20;44.89;99895.81;5116246;28;8844;-60
2023/05/14 10:32:31;;;;;;;;;8.40;7.80;;;;;28.47;44.24;99896.22;5114945;28;8843;-60
2023/05/14 10:35:00;;;;;;;;;7.00;6.60;;;;;28.52;44.75;99899.09;5117071;28;8978;-60
2023/05/14 10:37:28;;;;;;;;;11.80;10.40;;;;;27.89;45.97;99900.75;5116740;28;8897;-60
2023/05/14 10:39:56;;;;;;;;;10.40;9.80;;;;;26.83;47.54;99905.06;5116638;28;8946;-60
2023/05/14 10:42:24;;;;;;;;;8.20;8.20;;;;;25.70;49.14;99909.16;5116872;28;8815;-61
2023/05/14 10:44:53;;;;;;;;;9.60;7.60;;;;;24.70;51.41;99905.38;5117709;28;8840;-61
2023/05/14 10:47:21;;;;;;;;;10.00;8.60;;;;;24.03;52.76;99906.63;5117532;28;8848;-61
2023/05/14 10:49:49;;;;;;;;;10.40;8.00;;;;;24.60;50.70;99906.84;5114991;28;8988;-60
2023/05/14 10:52:17;;;;;;;;;7.20;7.00;;;;;25.48;48.67;99894.16;5114362;28;8910;-62
2023/05/14 10:54:44;;;;;;;;;6.00;5.40;;;;;26.31;47.86;99891.06;5116460;28;8916;-59
2023/05/14 10:57:13;;;;;;;;;8.60;8.40;;;;;26.89;46.82;99893.22;5115294;28;8824;-60
2023/05/14 10:59:41;;;;;;;;;6.00;6.00;;;;;27.41;45.52;99894.50;5116407;28;8855;-61
2023/05/14 11:02:09;;;;;;;;;7.80;7.20;;;;;26.88;46.60;99888.78;5115532;28;8812;-61
2023/05/14 11:04:37;;;;;;;;;8.00;8.00;;;;;25.92;48.18;99891.38;5115184;28;8859;-61
2023/05/14 11:07:05;;;;;;;;;7.60;7.60;;;;;25.42;49.53;99894.22;5116168;28;8816;-61
2023/05/14 11:09:33;;;;;;;;;7.60;7.20;;;;;25.20;50.05;99881.91;5115760;28;9525;-61
2023/05/14 11:12:01;;;;;;;;;9.60;7.80;;;;;25.25;49.43;99887.59;5115094;28;8886;-59
2023/05/14 11:14:29;;;;;;;;;9.40;7.00;;;;;24.91;49.62;99891.47;5116024;28;8958;-60
2023/05/14 11:16:57;;;;;;;;;6.80;6.80;;;;;24.84;49.80;99887.09;5115609;28;8832;-61
2023/05/14 11:19:25;;;;;;;;;8.20;7.00;;;;;25.32;48.57;99878.31;5116344;28;8832;-60
2023/05/14 11:21:53;;;;;;;;;6.00;5.80;;;;;26.24;47.09;99877.47;5116503;28;8844;-60
2023/05/14 11:24:22;;;;;;;;;5.20;5.00;;;;;26.74;46.42;99868.16;5116083;28;8942;-60
2023/05/14 11:26:50;;;;;;;;;4.20;4.20;;;;;27.01;45.02;99872.25;5115847;28;8970;-60
2023/05/14 11:29:18;;;;;;;;;6.00;6.00;;;;;26.70;46.14;99874.31;5115009;28;8828;-59
2023/05/14 11:31:45;;;;;;;;;6.00;6.00;;;;;26.31;46.40;99870.06;5115940;28;8932;-59